Time;durP1;ratioP1;P1;durP2;ratioP2;P2;SDS_P1;SDS_P2;PMS_P1;PMS_P2;Temp;Humidity;BMP_temperature;BMP_pressure;BME280_temperature;BME280_humidity;BME280_pressure;Samples;Min_cycle;Max_cycle;Signal;HPM_P1;HPM_P2
2023/12/26 00:01:36;;;;;;;5.85;1.30;;;;;;;7.71;93.83;99900.22;4915434;29;20048;-73
2023/12/26 00:04:03;;;;;;;4.38;1.20;;;;;;;7.60;94.09;99887.69;4915027;29;20056;-73
2023/12/26 00:06:29;;;;;;;5.32;1.50;;;;;;;7.42;95.01;99886.63;4916245;29;20048;-74
2023/12/26 00:08:56;;;;;;;5.40;1.70;;;;;;;7.37;95.55;99891.56;4916128;29;20048;-74
2023/12/26 00:11:23;;;;;;;4.47;1.88;;;;;;;7.34;95.67;99881.88;4915218;29;20048;-75
2023/12/26 00:13:49;;;;;;;5.43;1.98;;;;;;;7.54;95.25;99882.81;4915084;29;20048;-73
2023/12/26 00:16:16;;;;;;;4.43;1.50;;;;;;;7.38;95.46;99877.97;4915116;29;20474;-74
2023/12/26 00:18:43;;;;;;;4.65;1.73;;;;;;;7.31;96.26;99865.97;4915704;29;20512;-74
2023/12/26 00:21:10;;;;;;;7.00;1.58;;;;;;;7.47;95.68;99865.50;4915708;29;20052;-74
2023/12/26 00:23:37;;;;;;;3.90;1.10;;;;;;;7.44;95.93;99858.50;4914888;29;20070;-74
2023/12/26 00:26:04;;;;;;;4.97;1.60;;;;;;;7.57;95.89;99856.44;4915757;29;20059;-74
2023/12/26 00:28:31;;;;;;;6.10;1.67;;;;;;;7.61;94.94;99846.22;4914798;29;20071;-74
2023/12/26 00:30:57;;;;;;;3.22;1.25;;;;;;;7.63;95.10;99854.16;4916311;29;20133;-75
2023/12/26 00:33:24;;;;;;;5.35;1.48;;;;;;;7.75;94.68;99847.69;4914151;29;20071;-75
2023/12/26 00:35:51;;;;;;;3.70;1.10;;;;;;;7.59;95.31;99847.34;4915074;29;20056;-76
2023/12/26 00:38:18;;;;;;;3.13;1.45;;;;;;;7.63;94.95;99832.56;4915028;29;20048;-77
2023/12/26 00:40:47;;;;;;;8.07;1.83;;;;;;;7.51;95.66;99830.00;4914886;29;20055;-77
2023/12/26 00:43:14;;;;;;;5.55;1.73;;;;;;;7.56;95.83;99824.16;4914895;29;20044;-77
2023/12/26 00:45:41;;;;;;;5.32;1.65;;;;;;;7.43;95.60;99826.28;4915332;29;20052;-76
2023/12/26 00:48:07;;;;;;;5.65;1.77;;;;;;;7.44;95.90;99819.88;4913977;29;20052;-76
2023/12/26 00:50:41;;;;;;;8.13;1.73;;;;;;;7.35;96.58;99808.06;4914337;29;20161;-76
2023/12/26 00:53:09;;;;;;;4.22;1.65;;;;;;;7.28;96.78;99806.88;4916233;29;20060;-76
2023/12/26 00:55:36;;;;;;;4.45;1.60;;;;;;;7.23;97.18;99819.94;4916605;29;20441;-76
2023/12/26 00:58:03;;;;;;;4.57;1.80;;;;;;;7.37;97.02;99806.06;4932558;29;20241;-76
2023/12/26 01:00:30;;;;;;;11.63;1.70;;;;;;;7.31;97.06;99801.22;4934401;29;20122;-76
2023/12/26 01:02:57;;;;;;;4.75;2.67;;;;;;;7.26;97.52;99798.06;4934275;29;20394;-76
2023/12/26 01:05:25;;;;;;;3.35;1.80;;;;;;;7.27;97.93;99805.16;4933735;29;20099;-75
2023/12/26 01:07:51;;;;;;;9.63;2.40;;;;;;;7.22;97.96;99804.72;4933358;29;20462;-76
2023/12/26 01:10:18;;;;;;;5.65;1.90;;;;;;;7.27;97.89;99802.47;4933230;29;20493;-75
2023/12/26 01:12:47;;;;;;;2.83;1.67;;;;;;;7.42;97.92;99800.28;4916904;29;20428;-75
2023/12/26 01:15:14;;;;;;;7.07;1.92;;;;;;;7.44;97.42;99788.34;4932725;29;20063;-75
2023/12/26 01:17:41;;;;;;;11.98;2.75;;;;;;;7.35;97.76;99782.94;4933402;29;20099;-75
2023/12/26 01:20:08;;;;;;;5.72;1.70;;;;;;;7.19;98.26;99775.31;4933315;29;20044;-75
2023/12/26 01:22:36;;;;;;;6.28;2.42;;;;;;;7.27;98.54;99779.03;4932805;29;20052;-74
2023/12/26 01:25:05;;;;;;;4.63;1.90;;;;;;;7.41;98.32;99767.06;4933409;29;20052;-75
2023/12/26 01:27:33;;;;;;;7.05;2.20;;;;;;;7.27;98.54;99767.41;4933008;29;20056;-74
2023/12/26 01:30:01;;;;;;;3.95;1.88;;;;;;;7.24;98.61;99770.38;4934455;29;20059;-74
2023/12/26 01:32:28;;;;;;;6.72;2.05;;;;;;;7.28;98.55;99758.31;4933331;29;20497;-75
2023/12/26 01:34:55;;;;;;;4.57;2.25;;;;;;;7.36;98.40;99761.22;4933617;29;20044;-74
2023/12/26 01:37:22;;;;;;;5.38;1.70;;;;;;;7.37;98.53;99759.34;4933482;29;20419;-74
2023/12/26 01:39:49;;;;;;;4.60;1.92;;;;;;;7.55;97.83;99755.84;4933334;29;20059;-74
2023/12/26 01:42:16;;;;;;;10.57;1.85;;;;;;;7.56;97.23;99746.78;4933115;29;20051;-74
2023/12/26 01:44:43;;;;;;;2.38;1.67;;;;;;;7.62;97.63;99747.19;4932744;29;20417;-74
2023/12/26 01:47:11;;;;;;;3.63;1.50;;;;;;;7.71;97.10;99740.97;4932599;29;20062;-75
2023/12/26 01:49:39;;;;;;;4.03;1.60;;;;;;;7.71;96.83;99736.41;4932622;29;20051;-74
2023/12/26 01:52:08;;;;;;;4.10;1.40;;;;;;;7.72;97.02;99731.88;4932053;29;20083;-73
2023/12/26 01:54:36;;;;;;;6.40;1.30;;;;;;;7.75;96.90;99728.91;4919378;29;20516;-75
2023/12/26 01:57:07;;;;;;;2.35;1.05;;;;;;;7.83;96.59;99718.22;4913625;29;20112;-75
2023/12/26 01:59:36;;;;;;;4.25;1.63;;;;;;;7.76;96.60;99709.84;4913822;29;20052;-75
2023/12/26 02:02:07;;;;;;;3.28;1.10;;;;;;;7.68;97.16;99711.56;4913539;29;20055;-75
2023/12/26 02:04:34;;;;;;;3.03;1.40;;;;;;;7.62;97.57;99704.03;4913794;29;20077;-75
2023/12/26 02:07:23;;;;;;;2.67;1.80;;;;;;;7.47;98.29;99709.84;4915217;29;20465;-76
2023/12/26 02:09:50;;;;;;;4.78;1.48;;;;;;;7.55;98.36;99709.97;4912849;29;20048;-75
2023/12/26 02:12:17;;;;;;;3.40;1.40;;;;;;;7.58;98.42;99703.47;4914049;29;20121;-75
2023/12/26 02:14:44;;;;;;;3.78;1.33;;;;;;;7.61;98.51;99705.00;4913994;29;20111;-75
2023/12/26 02:17:24;;;;;;;2.40;1.48;;;;;;;7.69;98.17;99702.47;4912709;29;20507;-76
2023/12/26 02:19:51;;;;;;;3.15;1.63;;;;;;;7.72;98.08;99707.56;4913768;29;20100;-75
2023/12/26 02:22:18;;;;;;;2.85;1.40;;;;;;;7.72;98.19;99699.47;4896509;29;20071;-74
2023/12/26 02:24:45;;;;;;;3.20;1.70;;;;;;;7.71;98.30;99689.69;4913768;29;20143;-75
2023/12/26 02:27:17;;;;;;;1.85;1.35;;;;;;;7.85;97.99;99686.56;4912963;29;20107;-74
2023/12/26 02:29:49;;;;;;;2.15;1.20;;;;;;;7.90;97.16;99681.56;4912785;29;20382;-73
2023/12/26 02:32:19;;;;;;;1.73;1.00;;;;;;;7.87;97.32;99681.84;4913234;29;20520;-74
2023/12/26 02:34:50;;;;;;;1.80;1.20;;;;;;;7.93;97.06;99667.75;4913467;29;20052;-73
2023/12/26 02:37:16;;;;;;;2.05;1.10;;;;;;;7.73;97.39;99668.78;4913055;29;20138;-76
2023/12/26 02:39:44;;;;;;;2.05;1.50;;;;;;;7.76;98.08;99661.28;4913328;29;20107;-74
2023/12/26 02:42:12;;;;;;;1.88;1.13;;;;;;;7.74;97.99;99657.84;4913463;29;20052;-74
2023/12/26 02:44:38;;;;;;;10.27;1.00;;;;;;;7.73;98.06;99650.75;4913462;29;20050;-73
2023/12/26 02:47:05;;;;;;;1.40;0.90;;;;;;;7.77;97.84;99659.41;4913652;29;20115;-74
2023/12/26 02:49:32;;;;;;;3.10;0.80;;;;;;;7.73;98.16;99647.19;4912251;29;20059;-75
2023/12/26 02:51:59;;;;;;;1.42;0.70;;;;;;;7.78;98.16;99647.63;4912990;29;20046;-74
2023/12/26 02:54:26;;;;;;;2.63;0.65;;;;;;;7.87;98.18;99635.97;4923982;29;20460;-74
2023/12/26 02:56:52;;;;;;;1.25;0.60;;;;;;;7.89;97.97;99644.75;4931239;29;20485;-74
2023/12/26 02:59:19;;;;;;;1.42;0.57;;;;;;;7.85;98.12;99641.50;4931466;29;20051;-73
2023/12/26 03:01:46;;;;;;;0.77;0.65;;;;;;;7.88;98.17;99637.66;4932774;29;20058;-74
2023/12/26 03:04:15;;;;;;;4.45;0.60;;;;;;;7.86;98.01;99639.66;4932207;29;20044;-74
2023/12/26 03:06:41;;;;;;;3.72;0.60;;;;;;;7.78;98.05;99629.56;4931391;29;20043;-74
2023/12/26 03:09:09;;;;;;;2.92;0.50;;;;;;;7.93;98.27;99648.84;4931250;29;20047;-75
2023/12/26 03:11:35;;;;;;;0.35;0.30;;;;;;;7.97;98.00;99644.03;4931984;29;20055;-75
2023/12/26 03:14:02;;;;;;;0.75;0.32;;;;;;;8.00;97.80;99650.00;4931330;29;20047;-75
2023/12/26 03:16:29;;;;;;;0.35;0.30;;;;;;;8.01;97.65;99638.19;4931709;29;20492;-75
2023/12/26 03:18:56;;;;;;;6.57;0.63;;;;;;;8.12;96.66;99643.44;4931024;29;20047;-75
2023/12/26 03:21:23;;;;;;;4.35;0.35;;;;;;;8.19;96.61;99629.31;4930621;29;20065;-74
2023/12/26 03:23:50;;;;;;;2.20;0.20;;;;;;;8.31;95.78;99638.97;4914432;29;20119;-74
2023/12/26 03:26:16;;;;;;;1.40;0.40;;;;;;;8.24;96.08;99627.06;4932016;29;20054;-74
2023/12/26 03:28:43;;;;;;;1.17;0.30;;;;;;;8.13;96.83;99630.78;4932026;29;20059;-74
2023/12/26 03:31:10;;;;;;;0.32;0.20;;;;;;;8.08;97.44;99612.31;4914037;29;20047;-74
2023/12/26 03:33:39;;;;;;;5.10;0.17;;;;;;;8.14;97.35;99627.94;4931690;29;20058;-74
2023/12/26 03:36:08;;;;;;;0.52;0.32;;;;;;;8.22;96.55;99624.50;4931289;29;20063;-74
2023/12/26 03:38:37;;;;;;;0.20;0.20;;;;;;;8.23;96.60;99631.59;4931233;29;20571;-73
2023/12/26 03:41:05;;;;;;;0.10;0.08;;;;;;;8.18;97.06;99631.19;4931411;29;20060;-73
2023/12/26 03:43:31;;;;;;;3.00;0.20;;;;;;;8.36;96.06;99650.19;4930558;29;20043;-74
2023/12/26 03:45:58;;;;;;;0.82;0.20;;;;;;;8.32;95.56;99625.31;4930551;29;20107;-73
2023/12/26 03:48:25;;;;;;;0.17;0.00;;;;;;;8.29;95.74;99636.41;4931229;29;20426;-73
2023/12/26 03:50:52;;;;;;;0.43;0.20;;;;;;;8.29;94.98;99641.81;4930661;29;20051;-72
2023/12/26 03:53:19;;;;;;;2.28;0.20;;;;;;;8.28;94.68;99633.84;4927822;29;20048;-72
2023/12/26 03:55:46;;;;;;;2.65;0.32;;;;;;;8.21;95.16;99640.84;4912870;29;20072;-72
2023/12/26 03:58:13;;;;;;;0.17;0.15;;;;;;;8.28;94.92;99633.84;4912254;29;20489;-74
2023/12/26 04:00:39;;;;;;;3.47;0.32;;;;;;;8.23;94.96;99636.16;4911843;29;20048;-74
2023/12/26 04:03:07;;;;;;;0.45;0.25;;;;;;;8.15;95.74;99634.19;4912293;29;20803;-74
2023/12/26 04:05:34;;;;;;;0.65;0.30;;;;;;;8.18;94.92;99627.63;4912031;29;20045;-74
2023/12/26 04:08:03;;;;;;;0.80;0.40;;;;;;;8.16;95.21;99635.03;4919089;29;20056;-74
2023/12/26 04:10:30;;;;;;;0.85;0.45;;;;;;;8.19;94.89;99640.13;4930576;29;20055;-75
2023/12/26 04:12:57;;;;;;;0.68;0.50;;;;;;;8.26;94.58;99635.84;4930462;29;20075;-76
2023/12/26 04:15:24;;;;;;;1.52;0.30;;;;;;;8.20;94.96;99642.69;4914063;29;20464;-73
2023/12/26 04:17:51;;;;;;;1.25;0.45;;;;;;;8.28;94.38;99644.66;4929952;29;20048;-73
2023/12/26 04:20:18;;;;;;;0.47;0.40;;;;;;;8.25;94.58;99644.97;4930711;29;20119;-72
2023/12/26 04:22:44;;;;;;;0.90;0.52;;;;;;;8.19;94.70;99648.25;4931583;29;20044;-73
2023/12/26 04:25:11;;;;;;;1.08;0.40;;;;;;;8.11;95.33;99644.41;4930733;29;20147;-73
2023/12/26 04:27:37;;;;;;;1.25;0.40;;;;;;;8.19;94.56;99640.97;4931157;29;20134;-73
2023/12/26 04:30:06;;;;;;;0.63;0.50;;;;;;;8.16;94.92;99638.59;4930908;29;20054;-73
2023/12/26 04:32:33;;;;;;;0.20;0.20;;;;;;;8.19;94.72;99640.13;4931834;29;20633;-74
2023/12/26 04:34:59;;;;;;;0.70;0.30;;;;;;;8.17;94.68;99651.09;4933791;29;20094;-73
2023/12/26 04:37:26;;;;;;;0.82;0.43;;;;;;;8.15;95.01;99650.41;4933671;29;20115;-73
2023/12/26 04:39:53;;;;;;;0.30;0.25;;;;;;;8.14;95.22;99649.53;4934018;29;20464;-73
2023/12/26 04:42:19;;;;;;;0.68;0.30;;;;;;;8.23;94.38;99652.38;4933687;29;20111;-73
2023/12/26 04:44:47;;;;;;;0.40;0.30;;;;;;;8.17;94.51;99650.25;4934276;29;20051;-73
2023/12/26 04:47:13;;;;;;;0.43;0.30;;;;;;;8.22;94.58;99661.47;4916749;29;20044;-72
2023/12/26 04:49:40;;;;;;;0.85;0.25;;;;;;;8.19;94.57;99648.25;4933393;29;20054;-73
2023/12/26 04:52:07;;;;;;;0.65;0.30;;;;;;;8.26;94.09;99662.88;4933678;29;20048;-73
2023/12/26 04:54:33;;;;;;;1.73;0.35;;;;;;;8.21;94.61;99675.94;4933529;29;20047;-71
2023/12/26 04:57:00;;;;;;;0.68;0.50;;;;;;;8.22;94.37;99681.22;4933236;29;20090;-73
2023/12/26 04:59:26;;;;;;;0.40;0.30;;;;;;;8.14;95.03;99675.69;4933650;29;20420;-72
2023/12/26 05:01:53;;;;;;;0.30;0.30;;;;;;;8.20;94.65;99674.25;4932981;29;20492;-72
2023/12/26 05:04:19;;;;;;;0.43;0.22;;;;;;;8.07;95.20;99670.03;4932962;29;20047;-72
2023/12/26 05:06:46;;;;;;;1.75;0.30;;;;;;;8.10;95.16;99664.31;4933896;29;20052;-71
2023/12/26 05:09:15;;;;;;;0.57;0.30;;;;;;;8.13;95.20;99674.84;4933460;29;20043;-72
2023/12/26 05:11:43;;;;;;;0.40;0.35;;;;;;;8.13;95.09;99671.31;4933994;29;20066;-73
2023/12/26 05:14:10;;;;;;;0.20;0.20;;;;;;;8.12;94.95;99662.34;4932990;29;20505;-73
2023/12/26 05:16:40;;;;;;;2.40;0.40;;;;;;;8.15;94.98;99669.31;4934079;29;20534;-73
2023/12/26 05:19:11;;;;;;;0.50;0.28;;;;;;;8.16;95.29;99676.41;4933345;29;20073;-74
2023/12/26 05:21:38;;;;;;;1.63;0.47;;;;;;;8.16;94.91;99675.56;4917298;29;20078;-74
2023/12/26 05:24:05;;;;;;;0.82;0.55;;;;;;;8.20;94.67;99679.66;4933782;29;20106;-73
2023/12/26 05:26:42;;;;;;;1.55;0.45;;;;;;;8.09;95.37;99689.63;4933040;29;20051;-73
2023/12/26 05:29:10;;;;;;;5.07;0.30;;;;;;;8.09;95.39;99688.78;4932890;29;20054;-73
2023/12/26 05:31:40;;;;;;;0.60;0.30;;;;;;;8.11;95.38;99690.31;4933332;29;20111;-73
2023/12/26 05:34:07;;;;;;;2.35;0.40;;;;;;;8.11;95.50;99697.59;4933131;29;20056;-73
2023/12/26 05:36:34;;;;;;;0.68;0.40;;;;;;;8.05;95.19;99692.78;4933208;29;20055;-73
2023/12/26 05:39:01;;;;;;;1.13;0.45;;;;;;;8.02;95.64;99695.75;4932948;29;20115;-73
2023/12/26 05:41:28;;;;;;;0.98;0.50;;;;;;;8.08;95.44;99698.72;4933161;29;20051;-73
2023/12/26 05:43:54;;;;;;;2.67;0.98;;;;;;;8.17;94.98;99694.31;4931893;29;20189;-71
2023/12/26 05:46:28;;;;;;;0.80;0.35;;;;;;;8.11;95.24;99695.72;4932431;29;20106;-73
2023/12/26 05:48:54;;;;;;;0.43;0.20;;;;;;;8.07;95.28;99691.63;4932974;29;20522;-71
2023/12/26 05:51:21;;;;;;;0.40;0.20;;;;;;;7.96;95.96;99694.50;4933183;29;20047;-74
2023/12/26 05:53:48;;;;;;;7.55;0.50;;;;;;;8.04;95.74;99697.34;4933502;29;20066;-72
2023/12/26 05:56:14;;;;;;;1.13;0.28;;;;;;;8.03;96.34;99698.34;4933167;29;20050;-73
2023/12/26 05:58:41;;;;;;;0.30;0.30;;;;;;;8.06;95.69;99703.44;4932217;29;20102;-72
2023/12/26 06:01:11;;;;;;;0.70;0.35;;;;;;;8.05;95.57;99699.03;4932666;29;25054;-72
2023/12/26 06:03:38;;;;;;;0.45;0.30;;;;;;;8.09;95.87;99708.53;4933269;29;20490;-72
2023/12/26 06:06:10;;;;;;;0.57;0.32;;;;;;;8.05;95.64;99709.84;4931630;29;20126;-73
2023/12/26 06:08:40;;;;;;;0.68;0.43;;;;;;;8.10;95.68;99715.63;4932305;29;20073;-74
2023/12/26 06:11:08;;;;;;;1.00;0.20;;;;;;;8.16;94.82;99730.44;4932144;29;20044;-73
2023/12/26 06:13:34;;;;;;;0.10;0.10;;;;;;;8.23;94.76;99722.59;4932208;29;20071;-73
2023/12/26 06:16:01;;;;;;;0.20;0.10;;;;;;;8.13;95.10;99720.78;4931927;29;20500;-73
2023/12/26 06:18:28;;;;;;;0.20;0.20;;;;;;;8.16;94.94;99732.28;4932013;29;20053;-73
2023/12/26 06:20:54;;;;;;;0.98;0.10;;;;;;;8.13;94.95;99733.44;4932227;29;20576;-73
2023/12/26 06:23:21;;;;;;;0.50;0.30;;;;;;;8.09;94.96;99748.19;4932087;29;20481;-73
2023/12/26 06:25:48;;;;;;;6.95;0.38;;;;;;;8.07;95.38;99751.03;4932250;29;20475;-75
2023/12/26 06:28:14;;;;;;;0.38;0.20;;;;;;;8.07;95.61;99772.66;4932335;29;20064;-76
2023/12/26 06:30:41;;;;;;;0.85;0.13;;;;;;;8.20;94.40;99768.78;4931425;29;20055;-74
2023/12/26 06:33:08;;;;;;;0.50;0.17;;;;;;;8.13;94.82;99776.66;4931677;29;20469;-74
2023/12/26 06:35:35;;;;;;;0.55;0.10;;;;;;;8.17;94.46;99782.59;4931765;29;20393;-74
2023/12/26 06:38:01;;;;;;;0.57;0.10;;;;;;;8.13;94.54;99782.91;4931655;29;20461;-76
2023/12/26 06:40:29;;;;;;;0.10;0.10;;;;;;;8.12;94.24;99783.91;4931614;29;20064;-75
2023/12/26 06:42:56;;;;;;;2.10;0.30;;;;;;;8.08;93.91;99790.56;4932113;29;20420;-76
2023/12/26 06:45:23;;;;;;;0.50;0.20;;;;;;;8.13;93.80;99785.59;4931827;29;20089;-73
2023/12/26 06:47:49;;;;;;;0.50;0.30;;;;;;;8.13;93.95;99792.84;4915728;29;20054;-75
2023/12/26 06:50:16;;;;;;;0.40;0.20;;;;;;;8.06;94.13;99797.09;4932245;29;20047;-74
2023/12/26 06:52:43;;;;;;;0.50;0.20;;;;;;;8.05;94.09;99790.84;4932137;29;20377;-74
2023/12/26 06:55:10;;;;;;;0.65;0.10;;;;;;;8.06;93.60;99786.31;4914079;29;20417;-74
2023/12/26 06:57:36;;;;;;;1.38;0.20;;;;;;;7.94;94.12;99779.34;4912438;29;20116;-76
2023/12/26 07:00:05;;;;;;;1.48;0.13;;;;;;;8.04;91.96;99778.34;4911662;29;20103;-75
2023/12/26 07:02:32;;;;;;;3.53;0.40;;;;;;;7.97;92.73;99782.59;4911348;29;20047;-75
2023/12/26 07:04:59;;;;;;;2.35;0.40;;;;;;;7.92;93.03;99795.66;4912006;29;20101;-75
2023/12/26 07:07:25;;;;;;;0.98;0.15;;;;;;;7.87;92.60;99797.94;4912823;29;20047;-75
2023/12/26 07:09:52;;;;;;;0.32;0.20;;;;;;;7.84;93.24;99809.91;4912739;29;20047;-75
2023/12/26 07:12:18;;;;;;;0.17;0.10;;;;;;;7.87;92.42;99808.75;4912946;29;20048;-74
2023/12/26 07:14:45;;;;;;;2.08;0.35;;;;;;;7.93;91.49;99824.38;4913516;29;20044;-74
2023/12/26 07:17:12;;;;;;;1.35;0.10;;;;;;;7.91;91.00;99831.75;4912487;29;20051;-75
2023/12/26 07:19:38;;;;;;;0.30;0.13;;;;;;;7.83;91.76;99835.16;4912919;29;20060;-75
2023/12/26 07:22:05;;;;;;;0.88;0.20;;;;;;;7.77;92.16;99848.38;4912268;29;20493;-75
2023/12/26 07:24:33;;;;;;;0.40;0.28;;;;;;;7.74;92.12;99857.59;4912514;29;20123;-75
2023/12/26 07:26:59;;;;;;;1.02;0.38;;;;;;;7.69;92.30;99853.63;4912380;29;20445;-73
2023/12/26 07:29:28;;;;;;;0.35;0.15;;;;;;;7.68;92.55;99868.09;4912246;29;20059;-73
2023/12/26 07:31:55;;;;;;;0.35;0.25;;;;;;;7.68;92.00;99862.72;4912483;29;20048;-73
2023/12/26 07:34:21;;;;;;;0.10;0.10;;;;;;;7.69;92.41;99869.81;4911304;29;20501;-73
2023/12/26 07:36:48;;;;;;;1.05;0.40;;;;;;;7.71;92.13;99867.81;4912087;29;20048;-71
2023/12/26 07:39:15;;;;;;;0.77;0.30;;;;;;;7.72;91.85;99875.78;4913630;29;20071;-73
2023/12/26 07:41:41;;;;;;;1.48;0.47;;;;;;;7.64;92.34;99885.56;4912484;29;20048;-73
2023/12/26 07:44:08;;;;;;;1.00;0.40;;;;;;;7.70;91.93;99887.72;4912362;29;20182;-74
2023/12/26 07:46:35;;;;;;;0.40;0.20;;;;;;;7.65;92.16;99898.06;4911724;29;20055;-72
2023/12/26 07:49:02;;;;;;;0.25;0.20;;;;;;;7.73;91.58;99909.03;4911865;29;20076;-73
2023/12/26 07:51:29;;;;;;;0.10;0.10;;;;;;;7.66;92.25;99913.28;4912139;29;20127;-73
2023/12/26 07:53:56;;;;;;;1.08;0.20;;;;;;;7.71;91.91;99911.00;4919964;29;20067;-72
2023/12/26 07:56:22;;;;;;;1.05;0.20;;;;;;;7.67;92.47;99915.84;4931208;29;20047;-73
2023/12/26 07:58:51;;;;;;;1.13;0.35;;;;;;;7.70;92.04;99926.34;4931042;29;20456;-73
2023/12/26 08:01:18;;;;;;;0.47;0.30;;;;;;;7.76;91.56;99931.22;4931304;29;20194;-73
2023/12/26 08:03:45;;;;;;;3.17;0.30;;;;;;;7.79;91.45;99932.78;4931842;29;20039;-73
2023/12/26 08:06:11;;;;;;;1.00;0.40;;;;;;;7.78;91.33;99931.94;4930700;29;20568;-73
2023/12/26 08:08:38;;;;;;;0.82;0.40;;;;;;;7.76;91.25;99942.03;4934151;29;20497;-73
2023/12/26 08:11:05;;;;;;;1.58;0.45;;;;;;;7.77;91.07;99951.81;4934261;29;20052;-72
2023/12/26 08:13:32;;;;;;;1.33;0.57;;;;;;;7.76;91.22;99957.38;4917618;29;20107;-73
2023/12/26 08:15:58;;;;;;;3.53;0.57;;;;;;;7.76;90.33;99951.97;4934451;29;20048;-73
2023/12/26 08:18:25;;;;;;;2.15;0.77;;;;;;;7.67;90.96;99963.56;4934495;29;20111;-73
2023/12/26 08:20:52;;;;;;;2.92;0.50;;;;;;;7.73;90.54;99963.88;4933845;29;20051;-73
2023/12/26 08:23:19;;;;;;;2.15;0.55;;;;;;;7.81;89.64;99979.38;4934121;29;20043;-73
2023/12/26 08:25:46;;;;;;;2.08;0.70;;;;;;;7.80;89.35;99980.38;4935491;29;20052;-73
2023/12/26 08:28:12;;;;;;;4.53;0.75;;;;;;;7.79;89.20;99993.03;4934660;29;20070;-73
2023/12/26 08:30:39;;;;;;;2.53;0.40;;;;;;;7.88;88.75;99987.81;4933925;29;20083;-74
2023/12/26 08:33:07;;;;;;;2.78;0.73;;;;;;;7.86;88.97;100001.44;4934692;29;20130;-74
2023/12/26 08:35:34;;;;;;;4.10;0.80;;;;;;;7.89;88.79;99990.38;4917030;29;20409;-73
2023/12/26 08:38:01;;;;;;;2.20;0.40;;;;;;;7.84;89.11;99992.59;4934120;29;20071;-74
2023/12/26 08:40:27;;;;;;;4.30;0.73;;;;;;;7.84;89.42;99998.00;4934564;29;20075;-73
2023/12/26 08:42:54;;;;;;;4.60;0.98;;;;;;;7.82;89.29;100005.41;4934054;29;20489;-73
2023/12/26 08:45:21;;;;;;;4.72;0.90;;;;;;;7.86;88.15;100009.56;4934443;29;20047;-73
2023/12/26 08:47:49;;;;;;;2.65;0.82;;;;;;;7.69;90.00;100016.44;4934623;29;20050;-74
2023/12/26 08:50:16;;;;;;;2.95;0.70;;;;;;;7.86;88.71;100025.75;4934751;29;20496;-74
2023/12/26 08:52:43;;;;;;;1.30;0.57;;;;;;;7.93;88.82;100032.28;4934474;29;20397;-74
2023/12/26 08:55:09;;;;;;;4.07;0.82;;;;;;;7.89;88.98;100030.88;4916735;29;20044;-74
2023/12/26 08:57:36;;;;;;;4.63;1.00;;;;;;;8.00;87.70;100036.16;4915200;29;20141;-74
2023/12/26 09:00:04;;;;;;;2.45;0.68;;;;;;;8.07;87.40;100037.34;4915444;29;20485;-74
2023/12/26 09:02:31;;;;;;;3.50;0.70;;;;;;;8.07;86.85;100031.94;4915386;29;20054;-75
2023/12/26 09:04:58;;;;;;;3.65;0.95;;;;;;;8.02;86.79;100039.59;4915314;29;20056;-75
2023/12/26 09:07:26;;;;;;;5.25;1.08;;;;;;;7.97;87.31;100047.25;4914666;29;20055;-75
2023/12/26 09:09:53;;;;;;;4.10;0.80;;;;;;;8.04;87.10;100048.44;4914904;29;20059;-75
2023/12/26 09:12:19;;;;;;;4.10;0.95;;;;;;;7.97;86.38;100057.22;4915268;29;20501;-75
2023/12/26 09:14:46;;;;;;;8.20;1.20;;;;;;;7.89;86.51;100076.78;4915568;29;20512;-75
2023/12/26 09:17:13;;;;;;;3.90;1.15;;;;;;;7.95;85.65;100072.69;4914248;29;20048;-75
2023/12/26 09:19:41;;;;;;;7.20;1.10;;;;;;;7.83;85.52;100071.91;4913917;29;20053;-75
2023/12/26 09:22:08;;;;;;;6.45;0.80;;;;;;;7.75;86.41;100086.09;4914765;29;20511;-75
2023/12/26 09:24:35;;;;;;;7.47;1.10;;;;;;;7.84;85.30;100090.69;4914065;29;20414;-75
2023/12/26 09:27:01;;;;;;;5.07;1.10;;;;;;;7.69;86.48;100083.91;4914045;29;20056;-75
2023/12/26 09:29:28;;;;;;;4.63;1.00;;;;;;;7.71;86.73;100090.03;4914287;29;20519;-75
2023/12/26 09:31:54;;;;;;;8.50;1.13;;;;;;;7.81;85.68;100079.28;4914040;29;20075;-75
2023/12/26 09:34:22;;;;;;;7.00;1.42;;;;;;;7.89;84.78;100076.78;4913561;29;20052;-74
2023/12/26 09:36:49;;;;;;;6.78;1.48;;;;;;;7.87;84.98;100094.09;4914217;29;20048;-72
2023/12/26 09:39:15;;;;;;;7.25;1.08;;;;;;;7.88;83.98;100085.00;4915042;29;20132;-74
2023/12/26 09:41:43;;;;;;;6.60;1.05;;;;;;;7.84;84.56;100082.59;4913885;29;20050;-74
2023/12/26 09:44:10;;;;;;;7.50;1.50;;;;;;;7.85;83.52;100089.69;4914484;29;20060;-74
2023/12/26 09:46:37;;;;;;;6.05;1.00;;;;;;;7.95;83.44;100092.44;4914437;29;20422;-74
2023/12/26 09:49:04;;;;;;;8.25;1.38;;;;;;;7.94;83.76;100095.28;4874603;29;20044;-75
2023/12/26 09:51:44;;;;;;;8.40;1.40;;;;;;;8.00;82.82;100098.28;4893903;29;20056;-75
2023/12/26 09:54:16;;;;;;;7.13;1.13;;;;;;;8.06;82.29;100108.56;4904504;29;20050;-75
2023/12/26 09:56:45;;;;;;;7.45;1.40;;;;;;;8.17;81.60;100109.47;4913907;29;20055;-75
2023/12/26 09:59:12;;;;;;;6.75;1.52;;;;;;;8.29;82.54;100122.72;4914514;29;20130;-75
2023/12/26 10:01:40;;;;;;;7.55;1.45;;;;;;;8.64;79.35;100125.00;4913744;29;20052;-76
2023/12/26 10:04:07;;;;;;;6.95;1.00;;;;;;;9.07;77.35;100123.84;4914180;29;20104;-75
2023/12/26 10:06:34;;;;;;;5.22;0.85;;;;;;;9.51;74.44;100127.84;4897584;29;20052;-76
2023/12/26 10:09:00;;;;;;;3.60;1.08;;;;;;;10.00;71.56;100128.66;4913684;29;20052;-75
2023/12/26 10:11:28;;;;;;;6.78;1.27;;;;;;;10.24;70.59;100140.84;4913409;29;20095;-75
2023/12/26 10:13:58;;;;;;;6.38;1.20;;;;;;;10.02;70.26;100147.47;4913210;29;20120;-75
2023/12/26 10:16:24;;;;;;;8.63;1.63;;;;;;;10.23;69.56;100160.81;4913680;29;20492;-76
2023/12/26 10:18:52;;;;;;;6.57;1.27;;;;;;;10.71;67.32;100144.34;4896302;29;20044;-75
2023/12/26 10:21:19;;;;;;;4.25;1.13;;;;;;;10.72;66.86;100148.78;4912864;29;20055;-72
2023/12/26 10:23:46;;;;;;;7.15;1.30;;;;;;;10.69;65.30;100154.50;4914244;29;20071;-75
2023/12/26 10:26:12;;;;;;;13.07;1.75;;;;;;;10.94;66.06;100153.84;4914085;29;20131;-75
2023/12/26 10:28:44;;;;;;;9.27;1.92;;;;;;;11.18;65.42;100163.25;4914116;29;20056;-76
2023/12/26 10:31:13;;;;;;;6.97;1.33;;;;;;;11.03;63.49;100162.94;4913002;29;20048;-74
2023/12/26 10:33:43;;;;;;;9.07;1.67;;;;;;;10.75;64.09;100156.63;4912586;29;20075;-75
2023/12/26 10:36:10;;;;;;;8.38;2.15;;;;;;;10.47;65.40;100168.47;4913041;29;20051;-76
2023/12/26 10:38:39;;;;;;;8.90;2.00;;;;;;;10.30;64.11;100170.94;4913554;29;20495;-75
2023/12/26 10:41:08;;;;;;;6.50;1.58;;;;;;;10.10;64.11;100177.41;4913701;29;20052;-74
2023/12/26 10:43:42;;;;;;;16.73;1.88;;;;;;;10.18;65.43;100185.66;4887970;29;20055;-74
2023/12/26 10:46:08;;;;;;;14.43;2.30;;;;;;;10.00;64.17;100199.09;4912528;29;20141;-74
2023/12/26 10:48:36;;;;;;;10.18;1.70;;;;;;;9.86;64.97;100191.41;4906572;29;20051;-74
2023/12/26 10:51:04;;;;;;;8.02;2.22;;;;;;;9.67;66.18;100204.97;4931312;29;20055;-74
2023/12/26 10:53:37;;;;;;;11.77;2.13;;;;;;;9.54;67.23;100192.56;4931588;29;20393;-75
2023/12/26 10:56:06;;;;;;;11.40;2.25;;;;;;;9.25;66.93;100206.06;4914666;29;20112;-75
2023/12/26 10:58:35;;;;;;;17.13;2.10;;;;;;;9.15;67.81;100210.56;4922473;29;20048;-75
2023/12/26 13:53:57;;;;;;;5.35;1.50;;;;;;;8.27;62.43;100375.16;4929863;29;20071;-73
2023/12/26 13:57:01;;;;;;;9.15;1.55;;;;;;;8.30;63.24;100397.38;4913876;29;20570;-73
2023/12/26 14:00:05;;;;;;;8.40;1.92;;;;;;;8.30;63.97;100404.63;4914332;29;20139;-74
2023/12/26 14:03:09;;;;;;;8.05;1.80;;;;;;;8.37;63.01;100401.28;4897265;29;20107;-73
2023/12/26 14:06:13;;;;;;;5.90;1.48;;;;;;;8.29;62.88;100397.50;4912757;29;20056;-73
2023/12/26 14:09:18;;;;;;;7.28;1.38;;;;;;;8.27;63.20;100399.47;4913836;29;20095;-73
2023/12/26 14:12:21;;;;;;;9.05;1.05;;;;;;;8.30;62.21;100410.88;4914159;29;20640;-74
2023/12/26 14:15:26;;;;;;;9.70;1.67;;;;;;;8.21;63.23;100408.09;4913927;29;20067;-73
2023/12/26 14:18:29;;;;;;;13.80;2.35;;;;;;;8.21;62.69;100417.03;4913452;29;20103;-71
2023/12/26 14:21:34;;;;;;;10.60;2.10;;;;;;;8.19;62.83;100431.69;4913875;29;20040;-73
2023/12/26 14:24:38;;;;;;;12.98;3.05;;;;;;;8.12;64.50;100434.91;4913364;29;20054;-73
2023/12/26 14:27:42;;;;;;;10.13;1.67;;;;;;;8.13;63.39;100433.91;4913460;29;20044;-73
2023/12/26 14:30:46;;;;;;;10.95;2.25;;;;;;;8.09;62.66;100435.13;4913449;29;20518;-74
2023/12/26 14:33:51;;;;;;;5.22;1.27;;;;;;;8.14;61.97;100442.88;4913426;29;20485;-73
2023/12/26 14:36:56;;;;;;;8.38;2.10;;;;;;;8.08;64.17;100452.34;4896366;29;20043;-73
2023/12/26 14:40:00;;;;;;;8.20;1.20;;;;;;;8.13;62.50;100442.03;4893761;29;20047;-73
2023/12/26 14:43:04;;;;;;;8.57;1.73;;;;;;;8.07;63.09;100442.53;4913499;29;20551;-73